Terminal Aerodrome Forecast
Issued by NWS

Home | Current Version | Previous Version | Text Only | Print | Product List | Glossary On
Versions: 1 2 3 4 5 6 7 8 9 10 11 12 13 14 15 16 17 18 19 20 21 22 23 24 25
000
FTUS45 KGJT 220237 AAA
TAFRIL
TAF AMD
KRIL 220237Z 2203/2224 VRB10G20KT 3SM +SHRA SCT035 BKN045
     FM220300 08008KT P6SM VCTS SCT070CB SCT100
     FM220600 11007KT P6SM VCSH SCT040 BKN080
     FM221000 VRB05KT 5SM -SHRA SCT040 OVC060
     FM221500 00000KT P6SM BKN100
     FM221900 28007KT P6SM VCSH SCT070 BKN100=

USA.gov is the U.S. government's official web portal to all federal, state and local government web resources and services.